Silver, Texas
Current Conditions -  °F | °C
As of 9:15 AM on Monday 24 Nov 2014 (Local Time) from KSWW Reporting Station
Clear Clear  
Wind Chill: 38°   Ceiling: Unl
Heat Index: 41°   Visibility: 10mi
Dew Point: 32°   Wind: 5mph
Humidity: 69%   Direction: 220°SW
Pressure: 30.11"   Gusts: NA
Location:  32.07°N, 100.68°W
Report Text: KSWW 241515Z AUTO 22004KT 10SM CLR 05/00 A3011 RMK AO2 T00520000
Loading
Personal Weather Stations






























Interactive Weather Map New forecast layout! Learn more

10-Day Weather Forecast

Advertisements
Track Severe Weather on mobile